createdAt,value
2018-09-02T00:00:10.291Z,85.02
2018-09-02T00:02:39.468Z,85.44
2018-09-02T00:05:09.111Z,85.66
2018-09-02T00:07:38.264Z,85.79
2018-09-02T00:10:09.785Z,86.72
2018-09-02T00:12:40.679Z,85.13
2018-09-02T00:15:10.096Z,86.14
2018-09-02T00:17:40.253Z,85.19
2018-09-02T00:20:09.640Z,85.17
2018-09-02T00:22:39.858Z,86.21
2018-09-02T00:25:09.692Z,86.05
2018-09-02T00:27:39.872Z,87.55
2018-09-02T00:30:10.223Z,86.91
2018-09-02T00:32:40.385Z,85.57
2018-09-02T00:35:09.722Z,87.24
2018-09-02T00:37:39.840Z,87.16
2018-09-02T00:40:09.915Z,85.54
2018-09-02T00:42:39.897Z,85.06
2018-09-02T00:45:11.224Z,84.86
2018-09-02T00:47:40.948Z,85.27
2018-09-02T00:50:10.919Z,86.04
2018-09-02T00:52:40.685Z,87.56
2018-09-02T00:55:09.280Z,89.03
2018-09-02T00:57:37.857Z,88.19
2018-09-02T01:00:06.780Z,88.17
2018-09-02T01:02:35.325Z,90.52
2018-09-02T01:05:03.907Z,89.68
2018-09-02T01:07:32.464Z,88.19
2018-09-02T01:10:00.997Z,87.35
2018-09-02T01:12:29.581Z,87.74
2018-09-02T01:15:04.709Z,88.48
2018-09-02T01:17:33.273Z,89.36
2018-09-02T01:20:01.790Z,90.38
2018-09-02T01:22:30.353Z,89.26
2018-09-02T01:24:59.189Z,87.32
2018-09-02T01:27:27.705Z,88.45
2018-09-02T01:29:56.253Z,88.31
2018-09-02T01:32:24.781Z,90.68
2018-09-02T01:34:53.316Z,90.70
2018-09-02T01:37:21.844Z,89.32
2018-09-02T01:39:50.396Z,87.58
2018-09-02T01:42:20.266Z,89.70
2018-09-02T01:44:49.453Z,90.45
2018-09-02T01:47:17.972Z,91.10
2018-09-02T01:49:46.509Z,91.06
2018-09-02T01:52:15.042Z,91.32
2018-09-02T01:54:43.585Z,91.21
2018-09-02T01:57:12.201Z,92.01
2018-09-02T01:59:40.793Z,90.84
2018-09-02T02:02:09.342Z,90.57
2018-09-02T02:04:42.731Z,90.48
2018-09-02T02:07:12.932Z,90.77
2018-09-02T02:09:41.844Z,90.76
2018-09-02T02:12:10.344Z,91.50
2018-09-02T02:14:39.485Z,91.74
2018-09-02T02:17:08.015Z,90.81
2018-09-02T02:19:36.608Z,90.44
2018-09-02T02:22:05.128Z,91.96
2018-09-02T02:24:33.656Z,91.00
2018-09-02T02:27:02.182Z,88.88
2018-09-02T02:29:30.728Z,91.36
2018-09-02T02:31:59.236Z,91.54
2018-09-02T02:34:34.356Z,91.84
2018-09-02T02:37:02.963Z,90.73
2018-09-02T02:39:31.498Z,91.86
2018-09-02T02:42:00.026Z,92.18
2018-09-02T02:44:34.812Z,92.20
2018-09-02T02:47:07.126Z,92.05
2018-09-02T02:49:35.774Z,93.26
2018-09-02T02:52:04.292Z,93.14
2018-09-02T02:54:32.817Z,90.99
2018-09-02T02:57:01.333Z,90.28
2018-09-02T02:59:29.899Z,92.33
2018-09-02T03:01:58.653Z,92.40
2018-09-02T03:04:27.194Z,91.89
2018-09-02T03:06:55.709Z,90.88
2018-09-02T03:09:24.236Z,91.48
2018-09-02T03:11:52.789Z,92.11
2018-09-02T03:14:21.605Z,91.84
2018-09-02T03:16:50.107Z,92.75
2018-09-02T03:19:18.684Z,93.05
2018-09-02T03:21:47.201Z,94.34
2018-09-02T03:24:15.741Z,94.19
2018-09-02T03:26:44.244Z,93.35
2018-09-02T03:29:12.775Z,92.01
2018-09-02T03:31:41.285Z,92.80
2018-09-02T03:34:09.832Z,94.85
2018-09-02T03:36:38.340Z,95.82
2018-09-02T03:39:07.192Z,95.41
2018-09-02T03:41:35.757Z,95.25
2018-09-02T03:44:04.273Z,94.45
2018-09-02T03:46:32.816Z,93.97
2018-09-02T03:49:01.365Z,94.56
2018-09-02T03:51:33.211Z,92.09
2018-09-02T03:54:04.090Z,93.15
2018-09-02T03:56:35.280Z,92.70
2018-09-02T03:59:03.929Z,92.29
2018-09-02T04:01:32.688Z,92.15
2018-09-02T04:04:01.189Z,91.70
2018-09-02T04:06:29.731Z,92.40
2018-09-02T04:08:58.232Z,91.34
2018-09-02T04:11:26.807Z,93.08
2018-09-02T04:13:55.373Z,93.18
2018-09-02T04:16:23.920Z,93.00
2018-09-02T04:18:52.420Z,92.46
2018-09-02T04:21:20.988Z,91.84
2018-09-02T04:23:49.512Z,92.25
2018-09-02T04:26:18.080Z,95.57
2018-09-02T04:28:46.596Z,94.69
2018-09-02T04:31:15.137Z,94.40
2018-09-02T04:33:43.681Z,93.40
2018-09-02T04:36:12.221Z,92.47
2018-09-02T04:38:40.712Z,92.04
2018-09-02T04:41:09.972Z,92.97
2018-09-02T04:43:38.473Z,94.47
2018-09-02T04:46:07.116Z,94.67
2018-09-02T04:48:35.630Z,94.94
2018-09-02T04:51:04.178Z,94.79
2018-09-02T04:53:32.698Z,94.12
2018-09-02T04:56:01.569Z,93.99
2018-09-02T04:58:30.085Z,93.22
2018-09-02T05:00:58.656Z,94.85
2018-09-02T05:03:27.172Z,95.75
2018-09-02T05:05:55.709Z,94.88
2018-09-02T05:08:24.237Z,96.00
2018-09-02T05:10:52.786Z,93.27
2018-09-02T05:13:21.303Z,92.37
2018-09-02T05:15:49.834Z,94.11
2018-09-02T05:18:18.408Z,95.61
2018-09-02T05:20:46.945Z,95.40
2018-09-02T05:23:15.444Z,95.33
2018-09-02T05:25:44.075Z,96.29
2018-09-02T05:28:12.604Z,96.29
2018-09-02T05:30:41.173Z,94.30
2018-09-02T05:33:10.192Z,93.71
2018-09-02T05:35:38.683Z,93.79
2018-09-02T05:38:07.215Z,93.20
2018-09-02T05:40:35.771Z,94.37
2018-09-02T05:43:04.311Z,94.80
2018-09-02T05:45:32.809Z,95.83
2018-09-02T05:48:01.341Z,95.27
2018-09-02T05:50:30.189Z,94.38
2018-09-02T05:52:58.713Z,93.44
2018-09-02T05:55:27.225Z,94.56
2018-09-02T05:57:55.757Z,95.04
2018-09-02T06:00:24.296Z,95.06
2018-09-02T06:02:52.921Z,94.49
2018-09-02T06:05:26.169Z,93.64
2018-09-02T06:07:56.176Z,92.04
2018-09-02T06:10:25.005Z,90.43
2018-09-02T06:12:54.272Z,90.27
2018-09-02T06:15:22.777Z,89.59
2018-09-02T06:17:51.341Z,90.41
2018-09-02T06:20:19.881Z,90.68
2018-09-02T06:22:48.416Z,90.07
2018-09-02T06:25:16.984Z,89.21
2018-09-02T06:27:45.845Z,90.08
2018-09-02T06:30:14.398Z,88.44
2018-09-02T06:32:42.995Z,87.54
2018-09-02T06:35:11.465Z,87.34
2018-09-02T06:37:40.434Z,87.62
2018-09-02T06:40:09.041Z,88.85
2018-09-02T06:42:37.601Z,88.39
2018-09-02T06:45:06.166Z,87.38
2018-09-02T06:47:34.700Z,86.74
2018-09-02T06:50:03.216Z,85.73
2018-09-02T06:52:31.767Z,84.77
2018-09-02T06:55:00.292Z,84.65
2018-09-02T06:57:29.717Z,84.46
2018-09-02T07:00:04.893Z,83.80
2018-09-02T07:02:33.631Z,83.92
2018-09-02T07:05:02.150Z,84.06
2018-09-02T07:07:30.807Z,83.53
2018-09-02T07:09:59.256Z,82.77
2018-09-02T07:12:27.850Z,82.28
2018-09-02T07:14:56.428Z,83.60
2018-09-02T07:17:24.976Z,84.54
2018-09-02T07:19:53.502Z,84.05
2018-09-02T07:22:22.028Z,83.07
2018-09-02T07:24:50.565Z,83.43
2018-09-02T07:27:19.120Z,82.80
2018-09-02T07:29:47.666Z,82.28
2018-09-02T07:32:16.197Z,77.16
2018-09-02T07:34:44.865Z,77.35
2018-09-02T07:37:13.497Z,77.89
2018-09-02T07:39:42.055Z,76.21
2018-09-02T07:42:13.611Z,74.95
2018-09-02T07:44:48.341Z,73.93
2018-09-02T07:47:22.988Z,73.60
2018-09-02T07:49:51.773Z,73.09
2018-09-02T07:52:20.307Z,73.60
2018-09-02T07:54:48.858Z,73.10
2018-09-02T07:57:17.375Z,72.50
2018-09-02T07:59:53.106Z,72.59
2018-09-02T08:02:21.953Z,70.55
2018-09-02T08:04:50.498Z,71.07
2018-09-02T08:07:19.255Z,68.78
2018-09-02T08:09:51.189Z,68.58
2018-09-02T08:12:20.021Z,67.88
2018-09-02T08:14:48.604Z,67.22
2018-09-02T08:17:19.306Z,66.61
2018-09-02T08:19:48.493Z,66.20
2018-09-02T08:22:17.885Z,65.81
2018-09-02T08:24:46.525Z,65.89
2018-09-02T08:27:22.811Z,64.75
2018-09-02T08:29:55.865Z,65.28
2018-09-02T08:32:30.321Z,65.49
2018-09-02T08:35:10.130Z,65.10
2018-09-02T08:37:43.625Z,65.13
2018-09-02T08:40:17.323Z,63.74
2018-09-02T08:42:52.705Z,63.90
2018-09-02T08:45:22.642Z,63.47
2018-09-02T08:47:51.935Z,63.40
2018-09-02T08:50:21.540Z,63.16
2018-09-02T08:52:50.050Z,63.54
2018-09-02T08:55:24.047Z,64.04
2018-09-02T08:57:57.275Z,63.22
2018-09-02T09:00:26.905Z,63.93
2018-09-02T09:02:58.343Z,63.76
2018-09-02T09:05:27.628Z,62.98
2018-09-02T09:07:57.993Z,63.28
2018-09-02T09:10:27.928Z,63.06
2018-09-02T09:13:03.216Z,62.60
2018-09-02T09:15:32.009Z,62.88
2018-09-02T09:18:00.530Z,62.75
2018-09-02T09:20:33.115Z,62.53
2018-09-02T09:23:08.055Z,62.93
2018-09-02T09:25:38.569Z,62.79
2018-09-02T09:28:10.102Z,62.61
2018-09-02T09:30:43.817Z,63.35
2018-09-02T09:33:14.608Z,62.86
2018-09-02T09:35:43.916Z,62.33
2018-09-02T09:38:13.014Z,61.75
2018-09-02T09:40:44.611Z,61.69
2018-09-02T09:43:18.647Z,61.93
2018-09-02T09:45:50.539Z,61.79
2018-09-02T09:48:21.108Z,61.42
2018-09-02T09:50:50.824Z,61.37
2018-09-02T09:53:21.072Z,61.72
2018-09-02T09:55:50.480Z,61.46
2018-09-02T09:58:22.429Z,61.55
2018-09-02T10:00:52.636Z,61.26
2018-09-02T10:03:25.206Z,60.92
2018-09-02T10:05:58.751Z,61.93
2018-09-02T10:08:30.020Z,62.00
2018-09-02T10:11:00.788Z,61.99
2018-09-02T10:13:36.161Z,62.61
2018-09-02T10:16:09.889Z,62.38
2018-09-02T10:18:40.007Z,61.32
2018-09-02T10:21:10.838Z,60.84
2018-09-02T10:23:43.807Z,61.64
2018-09-02T10:26:16.651Z,61.87
2018-09-02T10:28:51.344Z,62.43
2018-09-02T10:31:26.555Z,62.73
2018-09-02T10:34:00.757Z,62.03
2018-09-02T10:36:31.080Z,62.05
2018-09-02T10:39:00.260Z,61.66
2018-09-02T10:41:32.349Z,62.25
2018-09-02T10:44:07.523Z,60.44
2018-09-02T10:46:41.461Z,60.97
2018-09-02T10:54:04.304Z,61.16
2018-09-02T10:56:33.055Z,61.32
2018-09-02T10:59:01.652Z,60.52
2018-09-02T11:01:36.679Z,61.84
2018-09-02T11:04:05.468Z,60.82
2018-09-02T11:06:34.157Z,60.43
2018-09-02T11:09:03.701Z,61.31
2018-09-02T11:11:34.497Z,61.27
2018-09-02T11:14:03.924Z,60.76
2018-09-02T11:16:41.094Z,61.74
2018-09-02T11:19:12.930Z,61.15
2018-09-02T11:21:43.314Z,60.90
2018-09-02T11:24:15.998Z,61.15
2018-09-02T11:26:44.709Z,61.43
2018-09-02T11:29:13.273Z,62.29
2018-09-02T11:31:41.915Z,60.29
2018-09-02T11:34:10.543Z,60.84
2018-09-02T11:36:42.890Z,60.02
2018-09-02T11:39:11.873Z,58.78
2018-09-02T11:41:40.432Z,60.20
2018-09-02T11:44:09.306Z,59.64
2018-09-02T11:46:37.944Z,59.29
2018-09-02T11:49:07.419Z,58.44
2018-09-02T11:51:36.026Z,59.32
2018-09-02T11:54:04.563Z,60.24
2018-09-02T11:56:33.097Z,60.08
2018-09-02T11:59:01.648Z,61.39
2018-09-02T12:01:30.276Z,61.00
2018-09-02T12:03:58.844Z,60.72
2018-09-02T12:06:27.413Z,60.33
2018-09-02T12:08:55.933Z,61.39
2018-09-02T12:11:24.468Z,60.76
2018-09-02T12:13:53.082Z,61.12
2018-09-02T12:16:25.274Z,60.69
2018-09-02T12:18:53.792Z,61.01
2018-09-02T12:21:22.586Z,60.56
2018-09-02T12:23:51.123Z,60.75
2018-09-02T12:26:19.628Z,62.05
2018-09-02T12:28:48.164Z,61.79
2018-09-02T12:31:16.848Z,61.92
2018-09-02T12:33:45.497Z,60.73
2018-09-02T12:36:13.995Z,61.35
2018-09-02T12:38:49.333Z,60.64
2018-09-02T12:41:17.900Z,61.17
2018-09-02T12:43:46.572Z,61.17
2018-09-02T12:46:17.145Z,61.14
2018-09-02T12:48:45.913Z,61.25
2018-09-02T12:51:14.497Z,61.03
2018-09-02T12:53:43.041Z,60.90
2018-09-02T12:56:12.153Z,61.07
2018-09-02T12:58:40.766Z,61.24
2018-09-02T13:01:09.282Z,61.90
2018-09-02T13:03:37.825Z,61.74
2018-09-02T13:06:06.340Z,61.57
2018-09-02T13:08:34.876Z,62.72
2018-09-02T13:11:03.388Z,62.47
2018-09-02T13:13:31.940Z,62.26
2018-09-02T13:16:00.697Z,62.09
2018-09-02T13:18:29.233Z,62.25
2018-09-02T13:20:57.751Z,62.31
2018-09-02T13:23:26.320Z,62.05
2018-09-02T13:25:54.833Z,62.17
2018-09-02T13:28:23.367Z,61.91
2018-09-02T13:30:51.881Z,62.00
2018-09-02T13:33:20.428Z,62.33
2018-09-02T13:35:48.929Z,62.02
2018-09-02T13:38:17.471Z,62.41
2018-09-02T13:40:45.976Z,62.59
2018-09-02T13:43:14.622Z,62.17
2018-09-02T13:45:43.132Z,63.11
2018-09-02T13:48:11.793Z,62.66
2018-09-02T13:50:40.345Z,63.06
2018-09-02T13:53:08.896Z,62.77
2018-09-02T13:55:37.800Z,62.86
2018-09-02T13:58:06.449Z,63.12
2018-09-02T14:00:35.009Z,62.71
2018-09-02T14:03:03.572Z,62.92
2018-09-02T14:05:32.093Z,62.57
2018-09-02T14:08:00.819Z,63.27
2018-09-02T14:10:29.216Z,62.49
2018-09-02T14:12:57.728Z,62.30
2018-09-02T14:15:26.334Z,62.52
2018-09-02T14:17:54.912Z,62.11
2018-09-02T14:20:23.448Z,62.07
2018-09-02T14:22:52.000Z,61.35
2018-09-02T14:25:20.533Z,61.67
2018-09-02T14:27:49.036Z,62.39
2018-09-02T14:30:17.589Z,61.81
2018-09-02T14:32:46.249Z,62.94
2018-09-02T14:35:14.796Z,62.31
2018-09-02T14:37:43.328Z,62.66
2018-09-02T14:40:11.868Z,62.37
2018-09-02T14:42:40.374Z,62.32
2018-09-02T14:45:10.237Z,62.73
2018-09-02T14:47:38.752Z,63.05
2018-09-02T14:50:07.533Z,63.36
2018-09-02T14:52:36.048Z,62.89
2018-09-02T14:55:04.668Z,63.08
2018-09-02T14:57:33.575Z,63.56
2018-09-02T15:00:02.152Z,63.07
2018-09-02T15:02:30.840Z,63.07
2018-09-02T15:05:00.361Z,63.21
2018-09-02T15:07:28.887Z,63.22
2018-09-02T15:09:59.376Z,63.68
2018-09-02T15:12:32.944Z,63.24
2018-09-02T15:15:02.786Z,64.44
2018-09-02T15:17:32.445Z,63.35
2018-09-02T15:20:02.128Z,63.48
2018-09-02T15:22:31.501Z,63.97
2018-09-02T15:25:00.045Z,62.98
2018-09-02T15:27:29.293Z,62.99
2018-09-02T15:29:57.840Z,63.94
2018-09-02T15:32:26.350Z,62.34
2018-09-02T15:34:54.905Z,63.77
2018-09-02T15:37:23.442Z,62.76
2018-09-02T15:39:51.980Z,63.34
2018-09-02T15:42:20.504Z,62.96
2018-09-02T15:44:49.073Z,62.46
2018-09-02T15:47:17.705Z,62.33
2018-09-02T15:49:46.221Z,62.05
2018-09-02T15:52:14.756Z,62.47
2018-09-02T15:54:43.576Z,62.33
2018-09-02T15:57:13.222Z,62.81
2018-09-02T15:59:41.769Z,63.39
2018-09-02T16:02:10.314Z,64.34
2018-09-02T16:04:38.832Z,62.90
2018-09-02T16:07:07.376Z,63.57
2018-09-02T16:09:35.871Z,63.31
2018-09-02T16:12:04.413Z,63.07
2018-09-02T16:14:32.933Z,63.28
2018-09-02T16:17:01.481Z,64.17
2018-09-02T16:19:29.989Z,64.70
2018-09-02T16:21:58.525Z,65.02
2018-09-02T16:24:27.049Z,64.74
2018-09-02T16:26:55.677Z,64.94
2018-09-02T16:29:24.183Z,65.07
2018-09-02T16:31:52.741Z,64.44
2018-09-02T16:34:21.261Z,64.89
2018-09-02T16:36:49.813Z,65.45
2018-09-02T16:39:18.330Z,64.71
2018-09-02T16:41:46.867Z,64.67
2018-09-02T16:44:15.376Z,65.20
2018-09-02T16:46:43.921Z,65.38
2018-09-02T16:49:13.418Z,65.15
2018-09-02T16:51:41.961Z,64.97
2018-09-02T16:54:11.658Z,64.80
2018-09-02T16:56:40.177Z,65.64
2018-09-02T16:59:08.780Z,65.29
2018-09-02T17:01:37.341Z,64.72
2018-09-02T17:04:08.026Z,65.71
2018-09-02T17:06:36.609Z,65.59
2018-09-02T17:09:09.087Z,65.90
2018-09-02T17:11:38.027Z,65.76
2018-09-02T17:14:06.821Z,65.89
2018-09-02T17:16:35.336Z,65.97
2018-09-02T17:19:08.338Z,66.69
2018-09-02T17:21:36.908Z,66.51
2018-09-02T17:27:02.580Z,66.53
2018-09-02T17:29:51.041Z,67.18
2018-09-02T17:32:36.152Z,67.91
2018-09-02T17:35:04.692Z,68.39
2018-09-02T17:37:37.157Z,68.38
2018-09-02T17:40:07.796Z,67.52
2018-09-02T17:42:36.396Z,68.07
2018-09-02T17:45:04.957Z,69.03
2018-09-02T17:47:33.501Z,69.24
2018-09-02T17:50:02.053Z,68.85
2018-09-02T17:52:30.569Z,71.33
2018-09-02T17:54:59.112Z,70.56
2018-09-02T17:57:27.698Z,70.36
2018-09-02T17:59:56.594Z,69.98
2018-09-02T18:02:38.407Z,68.89
2018-09-02T18:05:07.302Z,69.48
2018-09-02T18:07:36.124Z,69.73
2018-09-02T18:10:04.903Z,68.96
2018-09-02T18:12:38.202Z,69.32
2018-09-02T18:15:07.485Z,69.86
2018-09-02T18:17:36.228Z,69.78
2018-09-02T18:20:04.865Z,69.56
2018-09-02T18:22:33.381Z,70.48
2018-09-02T18:25:01.945Z,69.82
2018-09-02T18:27:32.825Z,70.37
2018-09-02T18:30:01.372Z,70.80
2018-09-02T18:32:31.195Z,69.26
2018-09-02T18:35:00.723Z,68.57
2018-09-02T18:37:29.292Z,70.48
2018-09-02T18:39:58.181Z,69.30
2018-09-02T18:42:27.091Z,68.86
2018-09-02T18:44:55.630Z,68.30
2018-09-02T18:47:24.169Z,68.76
2018-09-02T18:49:52.726Z,68.14
2018-09-02T18:52:21.301Z,67.01
2018-09-02T18:54:49.840Z,67.54
2018-09-02T18:57:18.372Z,68.03
2018-09-02T18:59:46.961Z,67.52
2018-09-02T19:02:15.542Z,67.40
2018-09-02T19:04:44.161Z,67.82
2018-09-02T19:07:12.669Z,68.15
2018-09-02T19:09:41.266Z,68.69
2018-09-02T19:12:09.931Z,68.57
2018-09-02T19:14:38.511Z,68.42
2018-09-02T19:17:07.128Z,68.38
2018-09-02T19:19:35.679Z,68.53
2018-09-02T19:22:04.324Z,67.88
2018-09-02T19:24:33.305Z,68.17
2018-09-02T19:27:01.996Z,68.39
2018-09-02T19:29:30.653Z,68.60
2018-09-02T19:32:01.698Z,67.93
2018-09-02T19:34:30.977Z,68.04
2018-09-02T19:37:01.984Z,67.87
2018-09-02T19:39:31.945Z,67.74
2018-09-02T19:42:03.103Z,67.58
2018-09-02T19:44:31.704Z,67.82
2018-09-02T19:47:03.406Z,68.19
2018-09-02T19:49:32.355Z,67.74
2018-09-02T19:52:00.885Z,67.74
2018-09-02T19:54:29.485Z,67.91
2018-09-02T19:56:58.575Z,68.29
2018-09-02T19:59:27.182Z,67.88
2018-09-02T20:01:55.737Z,68.11
2018-09-02T20:04:24.246Z,68.64
2018-09-02T20:06:52.803Z,69.09
2018-09-02T20:09:24.074Z,68.36
2018-09-02T20:11:53.611Z,68.60
2018-09-02T20:14:22.703Z,69.08
2018-09-02T20:16:51.306Z,69.08
2018-09-02T20:19:19.972Z,69.14
2018-09-02T20:21:48.612Z,68.78
2018-09-02T20:24:17.340Z,68.44
2018-09-02T20:26:46.883Z,68.72
2018-09-02T20:29:16.408Z,69.16
2018-09-02T20:31:45.097Z,69.51
2018-09-02T20:34:14.523Z,69.08
2018-09-02T20:36:43.275Z,69.99
2018-09-02T20:39:12.017Z,70.54
2018-09-02T20:41:40.657Z,71.13
2018-09-02T20:44:09.545Z,71.24
2018-09-02T20:46:39.125Z,71.45
2018-09-02T20:49:08.677Z,72.13
2018-09-02T20:51:37.257Z,71.83
2018-09-02T20:54:06.098Z,71.89
2018-09-02T20:56:36.168Z,71.99
2018-09-02T20:59:04.777Z,71.95
2018-09-02T21:01:36.749Z,71.10
2018-09-02T21:04:06.403Z,70.96
2018-09-02T21:06:34.958Z,70.46
2018-09-02T21:09:05.766Z,70.25
2018-09-02T21:11:35.967Z,70.82
2018-09-02T21:14:05.105Z,71.34
2018-09-02T21:16:41.503Z,72.02
2018-09-02T21:19:18.009Z,72.37
2018-09-02T21:21:50.573Z,73.38
2018-09-02T21:24:21.896Z,73.99
2018-09-02T21:26:56.573Z,74.50
2018-09-02T21:29:25.473Z,75.11
2018-09-02T21:31:54.265Z,75.02
2018-09-02T21:34:22.897Z,75.38
2018-09-02T21:36:53.904Z,74.84
2018-09-02T21:39:25.029Z,74.72
2018-09-02T21:41:55.055Z,75.79
2018-09-02T21:44:23.864Z,75.69
2018-09-02T21:46:52.414Z,76.50
2018-09-02T21:49:20.913Z,75.82
2018-09-02T21:51:50.092Z,74.54
2018-09-02T21:54:18.789Z,75.37
2018-09-02T21:56:47.355Z,76.03
2018-09-02T21:59:15.912Z,75.74
2018-09-02T22:01:44.968Z,74.91
2018-09-02T22:04:13.523Z,75.39
2018-09-02T22:06:42.212Z,75.25
2018-09-02T22:09:14.045Z,75.20
2018-09-02T22:11:45.922Z,76.00
2018-09-02T22:14:15.119Z,76.27
2018-09-02T22:16:44.289Z,76.14
2018-09-02T22:19:12.960Z,76.54
2018-09-02T22:21:41.565Z,78.16
2018-09-02T22:24:10.101Z,77.17
2018-09-02T22:26:38.612Z,75.71
2018-09-02T22:29:07.201Z,75.17
2018-09-02T22:31:35.702Z,75.59
2018-09-02T22:34:04.249Z,76.69
2018-09-02T22:36:32.779Z,75.10
2018-09-02T22:39:01.316Z,75.22
2018-09-02T22:41:29.883Z,75.53
2018-09-02T22:43:58.477Z,75.61
2018-09-02T22:46:27.025Z,75.30
2018-09-02T22:48:55.574Z,75.46
2018-09-02T22:51:24.084Z,76.40
2018-09-02T22:53:52.898Z,75.98
2018-09-02T22:56:21.412Z,76.08
2018-09-02T22:58:49.944Z,76.48
2018-09-02T23:01:18.506Z,74.98
2018-09-02T23:03:47.042Z,75.77
2018-09-02T23:06:15.946Z,75.71
2018-09-02T23:08:45.440Z,76.21
2018-09-02T23:11:14.000Z,77.35
2018-09-02T23:13:42.536Z,79.28
2018-09-02T23:16:11.143Z,79.45
2018-09-02T23:18:40.788Z,80.00
2018-09-02T23:21:09.291Z,80.09
2018-09-02T23:23:38.174Z,79.39
2018-09-02T23:26:06.809Z,78.04
2018-09-02T23:28:35.403Z,77.05
2018-09-02T23:31:03.929Z,78.65
2018-09-02T23:33:32.460Z,78.86
2018-09-02T23:36:00.985Z,78.96
2018-09-02T23:38:29.529Z,78.87
2018-09-02T23:40:58.059Z,79.89
2018-09-02T23:43:26.593Z,78.83
2018-09-02T23:45:55.096Z,77.89
2018-09-02T23:48:23.640Z,78.71
2018-09-02T23:50:52.157Z,77.46
2018-09-02T23:53:20.685Z,77.82
2018-09-02T23:55:49.206Z,78.12
2018-09-02T23:58:17.752Z,78.16
